Boufarik Air Base

DAAK · Blida, 阿尔及利亚

罗盘
风向 的 风向 210° Boufarik Airport 5/23
风: 4 kt, 2 beaufort

4 kt

1 kt
改变
0 ft 1.000 2.000 3.000 4.000 5.000
Cloud Cloud
FEW 2.300
Cloud Cloud Cloud Cloud Cloud Cloud
BKN 4.600
METAR DAAG 052330Z 21004KT 9999 FEW023 BKN046 12/09 Q1027

METAR Boufarik Airport - DAAK

Boufarik Airport是,阿尔及利亚中的中型机场。 该机场有一条跑道: 5/23. 该领域的国际民航组织标志是DAAK.

这份报告是针对2023年2月6日 00:30, 当地时间在阿尔及尔胡阿里·布迈丁机场进行的。

机场观察

风向为210°,速度为4 kt。

可见度为10 km 或者更多。

有几云在2.300 ft的高度 和 碎云在4.600 ft的高度。 破损或更高的上限为4.600 ft。

温度和风寒是12 °C。 露点为9 °C,相对湿度为82%。 海平面上的气压为1027 hPa (QNH)。

白天

今天,太阳从07:46升起,在18:18降落。 这适用于Boufarik Airport,世界夏令时可能有所不同。 当地时间与世界标准时间之间的时差为+1 小时。 当前,没有夏令时有效。

公司介绍

我们没有关于这个机场的公司信息。

体会

到Vliegles.nl去找飞行课程,跳伞和其他飞行体验。 浏览页面,了解Boufarik Airport附近所有可用的活动。 你也可以使用搜索功能来寻找你所在地附近的特定飞行课程、跳伞或其他飞行体验。

跑道

Id 标题 侧风 逆风 侧风 %
5/23 043°-223° 4 kt 22 %

逆风成分最大的方向会被突出显示,并用于横风计算。 这并不一定意味着这个方向在使用。

乌云

2.300 ft FEW 几云
4.600 ft BKN 碎云

温度 & 天气

温度 12 °C
露点 9 °C
相对湿度 82%
Kp-index 1 (0-9)

白天

日出
07:45 (6:49)
中午
13:01
日落
18:16

小工具

你想在你的网站上有一个关于Boufarik Airport的当前航空天气(METAR)的小部件吗?

显示HTML代码

我们和第三方通过cookies跟踪您在我们网站上的互联网行为。如果你继续,我们认为你同意我们的饼干政策